sensor_id;sensor_type;location;lat;lon;timestamp;pressure;altitude;pressure_sealevel;temperature;humidity
53758;BME280;39674;59.860;30.672;2023-04-26T00:46:19;100185.50;;;8.47;68.80
53758;BME280;39674;59.860;30.672;2023-04-26T01:20:06;100204.50;;;8.70;67.69
53758;BME280;39674;59.860;30.672;2023-04-26T01:23:01;100108.56;;;8.07;68.16
53758;BME280;39674;59.860;30.672;2023-04-26T01:25:47;100144.69;;;8.21;67.92
53758;BME280;39674;59.860;30.672;2023-04-26T01:28:33;100076.38;;;7.84;66.70
53758;BME280;39674;59.860;30.672;2023-04-26T01:37:25;100079.47;;;7.93;65.83
53758;BME280;39674;59.860;30.672;2023-04-26T01:43:22;100062.34;;;7.49;69.78
53758;BME280;39674;59.860;30.672;2023-04-26T01:45:53;100162.41;;;8.00;70.11
53758;BME280;39674;59.860;30.672;2023-04-26T01:48:31;100132.50;;;7.66;70.59
53758;BME280;39674;59.860;30.672;2023-04-26T01:51:01;100194.38;;;7.91;71.98
53758;BME280;39674;59.860;30.672;2023-04-26T01:53:33;100200.81;;;7.85;72.73
53758;BME280;39674;59.860;30.672;2023-04-26T01:56:05;100070.53;;;7.06;72.88
53758;BME280;39674;59.860;30.672;2023-04-26T01:58:36;100108.34;;;7.21;73.58
53758;BME280;39674;59.860;30.672;2023-04-26T02:01:07;100186.88;;;7.83;71.04
53758;BME280;39674;59.860;30.672;2023-04-26T02:03:43;100137.50;;;7.53;71.59
53758;BME280;39674;59.860;30.672;2023-04-26T02:06:20;100148.72;;;7.57;70.41
53758;BME280;39674;59.860;30.672;2023-04-26T02:08:51;100185.38;;;7.77;69.76
53758;BME280;39674;59.860;30.672;2023-04-26T02:11:26;100102.59;;;7.32;68.83
53758;BME280;39674;59.860;30.672;2023-04-26T02:14:49;100098.03;;;7.35;71.03
53758;BME280;39674;59.860;30.672;2023-04-26T02:17:35;100177.97;;;7.68;71.80
53758;BME280;39674;59.860;30.672;2023-04-26T02:20:19;100103.75;;;7.07;71.72
53758;BME280;39674;59.860;30.672;2023-04-26T02:22:48;100080.47;;;6.80;72.86
53758;BME280;39674;59.860;30.672;2023-04-26T02:25:36;100172.47;;;7.36;72.64
53758;BME280;39674;59.860;30.672;2023-04-26T02:28:27;100166.78;;;7.26;74.20
53758;BME280;39674;59.860;30.672;2023-04-26T02:31:11;100109.94;;;6.87;73.53
53758;BME280;39674;59.860;30.672;2023-04-26T02:34:18;100103.59;;;6.72;75.16
53758;BME280;39674;59.860;30.672;2023-04-26T02:37:02;100173.38;;;7.16;74.65
53758;BME280;39674;59.860;30.672;2023-04-26T02:39:31;100120.34;;;6.88;73.30
53758;BME280;39674;59.860;30.672;2023-04-26T02:42:00;100165.00;;;7.07;73.71
53758;BME280;39674;59.860;30.672;2023-04-26T02:44:38;100125.59;;;6.88;74.25
53758;BME280;39674;59.860;30.672;2023-04-26T02:47:09;100166.66;;;7.10;75.55
53758;BME280;39674;59.860;30.672;2023-04-26T02:49:38;100169.91;;;7.15;74.12
53758;BME280;39674;59.860;30.672;2023-04-26T02:52:06;100165.44;;;7.17;73.93
53758;BME280;39674;59.860;30.672;2023-04-26T02:54:35;100146.69;;;7.06;73.24
53758;BME280;39674;59.860;30.672;2023-04-26T02:57:04;100160.25;;;7.16;75.13
53758;BME280;39674;59.860;30.672;2023-04-26T02:59:37;100106.44;;;6.86;73.16
53758;BME280;39674;59.860;30.672;2023-04-26T03:02:07;100156.06;;;7.12;74.88
53758;BME280;39674;59.860;30.672;2023-04-26T03:04:37;100137.97;;;7.05;75.72
53758;BME280;39674;59.860;30.672;2023-04-26T03:07:05;100147.72;;;7.21;73.97
53758;BME280;39674;59.860;30.672;2023-04-26T03:09:35;100091.69;;;6.84;74.40
53758;BME280;39674;59.860;30.672;2023-04-26T03:12:07;100078.47;;;6.85;73.61
53758;BME280;39674;59.860;30.672;2023-04-26T03:14:39;100153.19;;;7.35;73.96
53758;BME280;39674;59.860;30.672;2023-04-26T03:17:20;100093.25;;;7.07;73.83
53758;BME280;39674;59.860;30.672;2023-04-26T03:20:06;100054.38;;;6.77;75.12
53758;BME280;39674;59.860;30.672;2023-04-26T03:22:45;100144.59;;;7.32;73.02
53758;BME280;39674;59.860;30.672;2023-04-26T03:25:14;100115.66;;;7.14;73.02
53758;BME280;39674;59.860;30.672;2023-04-26T03:27:43;100135.72;;;7.34;74.42
53758;BME280;39674;59.860;30.672;2023-04-26T03:30:12;100154.41;;;7.47;75.32
53758;BME280;39674;59.860;30.672;2023-04-26T03:32:45;100147.59;;;7.43;76.24
53758;BME280;39674;59.860;30.672;2023-04-26T03:35:32;100150.75;;;7.69;74.63
53758;BME280;39674;59.860;30.672;2023-04-26T03:38:31;100100.31;;;7.43;73.13
53758;BME280;39674;59.860;30.672;2023-04-26T03:41:26;100143.16;;;7.63;74.43
53758;BME280;39674;59.860;30.672;2023-04-26T03:44:01;100152.28;;;7.55;76.03
53758;BME280;39674;59.860;30.672;2023-04-26T03:46:41;100087.69;;;7.13;75.80
53758;BME280;39674;59.860;30.672;2023-04-26T03:49:10;100145.72;;;7.45;76.76
53758;BME280;39674;59.860;30.672;2023-04-26T03:51:40;100151.78;;;7.47;76.95
53758;BME280;39674;59.860;30.672;2023-04-26T03:54:25;100134.19;;;7.49;77.14
53758;BME280;39674;59.860;30.672;2023-04-26T03:57:17;100134.78;;;7.54;78.06
53758;BME280;39674;59.860;30.672;2023-04-26T03:59:47;100131.78;;;7.62;77.44
53758;BME280;39674;59.860;30.672;2023-04-26T04:02:17;100135.75;;;7.71;77.42
53758;BME280;39674;59.860;30.672;2023-04-26T04:04:45;100136.72;;;7.87;78.65
53758;BME280;39674;59.860;30.672;2023-04-26T04:07:16;100146.00;;;7.95;77.19
53758;BME280;39674;59.860;30.672;2023-04-26T04:09:45;100138.03;;;7.96;75.90
53758;BME280;39674;59.860;30.672;2023-04-26T04:12:18;100074.66;;;7.66;75.51
53758;BME280;39674;59.860;30.672;2023-04-26T04:14:49;100146.38;;;8.22;73.85
53758;BME280;39674;59.860;30.672;2023-04-26T04:17:18;100055.34;;;7.84;73.29
53758;BME280;39674;59.860;30.672;2023-04-26T04:19:52;100131.06;;;8.48;71.67
53758;BME280;39674;59.860;30.672;2023-04-26T04:22:23;100144.88;;;8.69;72.25
53758;BME280;39674;59.860;30.672;2023-04-26T04:24:51;100142.38;;;8.83;71.26
53758;BME280;39674;59.860;30.672;2023-04-26T04:27:20;100154.44;;;9.04;69.99
53758;BME280;39674;59.860;30.672;2023-04-26T04:29:49;100084.00;;;8.75;69.01
53758;BME280;39674;59.860;30.672;2023-04-26T04:32:20;100135.53;;;9.29;69.18
53758;BME280;39674;59.860;30.672;2023-04-26T04:34:51;100147.53;;;9.51;69.46
53758;BME280;39674;59.860;30.672;2023-04-26T04:37:40;100151.56;;;9.72;67.45
53758;BME280;39674;59.860;30.672;2023-04-26T04:40:10;100140.16;;;9.88;66.83
53758;BME280;39674;59.860;30.672;2023-04-26T04:42:41;100138.34;;;10.04;65.57
53758;BME280;39674;59.860;30.672;2023-04-26T04:45:10;100142.53;;;10.23;63.74
53758;BME280;39674;59.860;30.672;2023-04-26T04:47:40;100101.22;;;10.22;62.69
53758;BME280;39674;59.860;30.672;2023-04-26T04:50:10;100149.38;;;10.70;63.37
53758;BME280;39674;59.860;30.672;2023-04-26T04:52:40;100127.88;;;10.76;61.83
53758;BME280;39674;59.860;30.672;2023-04-26T04:55:13;100136.56;;;10.93;60.65
53758;BME280;39674;59.860;30.672;2023-04-26T04:57:44;100152.41;;;11.22;60.40
53758;BME280;39674;59.860;30.672;2023-04-26T05:00:19;100157.63;;;11.36;61.15
53758;BME280;39674;59.860;30.672;2023-04-26T05:02:56;100153.28;;;11.35;60.06
53758;BME280;39674;59.860;30.672;2023-04-26T05:05:27;100145.94;;;11.40;60.23
53758;BME280;39674;59.860;30.672;2023-04-26T05:07:57;100155.19;;;11.48;61.66
53758;BME280;39674;59.860;30.672;2023-04-26T05:10:26;100153.59;;;11.72;60.21
53758;BME280;39674;59.860;30.672;2023-04-26T05:12:54;100139.19;;;11.77;58.79
53758;BME280;39674;59.860;30.672;2023-04-26T05:15:25;100119.28;;;11.98;59.57
53758;BME280;39674;59.860;30.672;2023-04-26T05:17:56;100041.66;;;11.85;57.31
53758;BME280;39674;59.860;30.672;2023-04-26T05:20:35;100155.25;;;12.80;56.16
53758;BME280;39674;59.860;30.672;2023-04-26T05:23:35;100145.78;;;13.14;56.02
53758;BME280;39674;59.860;30.672;2023-04-26T05:26:05;100142.44;;;13.37;55.83
53758;BME280;39674;59.860;30.672;2023-04-26T05:28:52;100123.78;;;13.38;53.54
53758;BME280;39674;59.860;30.672;2023-04-26T05:31:31;100135.19;;;13.76;53.91
53758;BME280;39674;59.860;30.672;2023-04-26T05:34:09;100134.00;;;14.16;53.81
53758;BME280;39674;59.860;30.672;2023-04-26T05:36:42;100139.00;;;14.32;52.70
53758;BME280;39674;59.860;30.672;2023-04-26T05:39:15;100136.47;;;14.41;51.75
53758;BME280;39674;59.860;30.672;2023-04-26T05:41:51;100127.19;;;14.47;51.57
53758;BME280;39674;59.860;30.672;2023-04-26T05:44:20;100127.50;;;14.67;51.65
53758;BME280;39674;59.860;30.672;2023-04-26T05:46:48;100135.44;;;14.89;51.08
53758;BME280;39674;59.860;30.672;2023-04-26T05:49:19;100098.84;;;14.82;51.12
53758;BME280;39674;59.860;30.672;2023-04-26T05:51:52;100069.44;;;14.95;49.56
53758;BME280;39674;59.860;30.672;2023-04-26T05:54:42;100138.53;;;15.40;47.32
53758;BME280;39674;59.860;30.672;2023-04-26T05:57:28;100133.66;;;15.56;48.44
53758;BME280;39674;59.860;30.672;2023-04-26T05:59:59;100118.16;;;15.62;46.99
53758;BME280;39674;59.860;30.672;2023-04-26T06:02:28;100128.34;;;15.89;48.40
53758;BME280;39674;59.860;30.672;2023-04-26T06:04:57;100123.53;;;16.15;47.18
53758;BME280;39674;59.860;30.672;2023-04-26T06:07:25;100126.97;;;16.48;46.23
53758;BME280;39674;59.860;30.672;2023-04-26T06:10:02;100115.75;;;16.55;43.98
53758;BME280;39674;59.860;30.672;2023-04-26T06:17:13;100123.75;;;17.16;44.89
53758;BME280;39674;59.860;30.672;2023-04-26T06:32:30;100075.09;;;17.54;42.22
53758;BME280;39674;59.860;30.672;2023-04-26T06:34:59;100007.91;;;17.58;43.46
53758;BME280;39674;59.860;30.672;2023-04-26T06:37:32;100111.22;;;18.64;42.47
53758;BME280;39674;59.860;30.672;2023-04-26T06:40:21;100099.03;;;18.80;40.82
53758;BME280;39674;59.860;30.672;2023-04-26T06:42:57;100100.22;;;18.67;39.71
53758;BME280;39674;59.860;30.672;2023-04-26T06:48:25;100114.16;;;19.08;39.98
53758;BME280;39674;59.860;30.672;2023-04-26T06:51:06;100089.84;;;19.20;39.10
53758;BME280;39674;59.860;30.672;2023-04-26T06:54:13;100104.09;;;19.38;37.71
53758;BME280;39674;59.860;30.672;2023-04-26T06:56:47;100115.53;;;19.77;40.07
53758;BME280;39674;59.860;30.672;2023-04-26T06:59:23;100103.56;;;20.07;38.95
53758;BME280;39674;59.860;30.672;2023-04-26T07:02:02;100049.34;;;19.87;37.43
53758;BME280;39674;59.860;30.672;2023-04-26T07:04:32;100122.94;;;20.19;35.76
53758;BME280;39674;59.860;30.672;2023-04-26T07:07:07;100083.78;;;20.26;37.10
53758;BME280;39674;59.860;30.672;2023-04-26T07:09:37;100112.84;;;20.39;36.15
53758;BME280;39674;59.860;30.672;2023-04-26T07:44:22;100108.53;;;21.58;32.61
53758;BME280;39674;59.860;30.672;2023-04-26T07:47:25;100037.72;;;20.65;31.94
53758;BME280;39674;59.860;30.672;2023-04-26T07:54:11;100042.22;;;20.91;32.51
53758;BME280;39674;59.860;30.672;2023-04-26T08:03:48;100101.81;;;21.87;31.75
53758;BME280;39674;59.860;30.672;2023-04-26T08:06:49;100110.56;;;21.89;30.83
53758;BME280;39674;59.860;30.672;2023-04-26T08:09:28;100058.81;;;21.95;31.75
